createdAt,value
2022-10-29T00:02:21.457Z,12.37
2022-10-29T00:04:49.338Z,13.30
2022-10-29T00:07:17.179Z,11.40
2022-10-29T00:09:45.013Z,12.00
2022-10-29T00:12:12.838Z,12.07
2022-10-29T00:14:40.690Z,12.03
2022-10-29T00:17:09.844Z,11.47
2022-10-29T00:19:37.640Z,12.00
2022-10-29T00:22:05.446Z,10.60
2022-10-29T00:24:33.310Z,12.27
2022-10-29T00:27:01.152Z,11.70
2022-10-29T00:29:28.981Z,11.80
2022-10-29T00:31:56.853Z,11.50
2022-10-29T00:34:26.154Z,11.67
2022-10-29T00:36:53.986Z,11.87
2022-10-29T00:39:21.802Z,11.43
2022-10-29T00:41:49.644Z,11.57
2022-10-29T00:44:29.349Z,11.57
2022-10-29T00:47:03.293Z,11.33
2022-10-29T00:49:33.958Z,11.13
2022-10-29T00:52:04.049Z,12.93
2022-10-29T00:54:35.478Z,11.27
2022-10-29T00:57:09.458Z,11.03
2022-10-29T00:59:37.532Z,11.30
2022-10-29T01:02:05.512Z,11.13
2022-10-29T01:04:36.138Z,11.20
2022-10-29T01:07:04.674Z,12.10
2022-10-29T01:09:32.518Z,11.30
2022-10-29T01:12:22.327Z,11.97
2022-10-29T01:15:01.153Z,11.50
2022-10-29T01:17:35.006Z,11.97
2022-10-29T01:20:44.762Z,10.77
2022-10-29T01:23:40.996Z,11.50
2022-10-29T01:26:49.285Z,10.57
2022-10-29T01:29:34.589Z,11.80
2022-10-29T01:32:10.092Z,10.77
2022-10-29T01:34:43.891Z,10.90
2022-10-29T01:37:18.633Z,11.13
2022-10-29T01:39:53.947Z,10.77
2022-10-29T01:42:26.507Z,10.83
2022-10-29T01:44:59.224Z,11.33
2022-10-29T01:47:32.824Z,10.47
2022-10-29T01:50:03.487Z,12.47
2022-10-29T01:52:35.082Z,11.97
2022-10-29T01:55:03.164Z,10.73
2022-10-29T01:57:33.669Z,10.63
2022-10-29T02:00:05.659Z,10.63
2022-10-29T02:03:01.554Z,10.43
2022-10-29T02:05:34.992Z,10.27
2022-10-29T02:08:13.616Z,10.20
2022-10-29T02:10:49.089Z,10.33
2022-10-29T02:15:57.721Z,9.83
2022-10-29T02:18:27.001Z,10.00
2022-10-29T02:20:54.977Z,12.63
2022-10-29T02:23:22.902Z,10.10
2022-10-29T02:25:50.773Z,10.63
2022-10-29T02:30:52.161Z,9.57
2022-10-29T02:33:21.225Z,10.63
2022-10-29T02:35:50.397Z,10.07
2022-10-29T02:38:18.265Z,10.97
2022-10-29T02:40:46.093Z,10.43
2022-10-29T02:43:14.043Z,12.00
2022-10-29T02:45:41.910Z,10.53
2022-10-29T02:48:09.795Z,10.83
2022-10-29T02:50:37.627Z,10.03
2022-10-29T02:53:06.808Z,10.40
2022-10-29T02:55:34.597Z,10.23
2022-10-29T02:58:02.483Z,10.20
2022-10-29T03:00:30.335Z,10.70
2022-10-29T03:02:58.405Z,9.83
2022-10-29T03:05:26.629Z,9.13
2022-10-29T03:07:54.406Z,9.60
2022-10-29T03:10:23.618Z,10.03
2022-10-29T03:12:51.439Z,9.73
2022-10-29T03:15:19.274Z,10.60
2022-10-29T03:17:47.087Z,10.43
2022-10-29T03:20:14.997Z,10.23
2022-10-29T03:22:42.801Z,9.30
2022-10-29T03:25:11.297Z,9.00
2022-10-29T03:27:43.921Z,9.37
2022-10-29T03:30:13.285Z,10.13
2022-10-29T03:32:41.253Z,9.77
2022-10-29T03:35:10.453Z,10.33
2022-10-29T03:37:38.428Z,9.37
2022-10-29T03:40:07.633Z,9.57
2022-10-29T03:42:35.589Z,9.03
2022-10-29T03:45:05.097Z,9.47
2022-10-29T03:47:34.235Z,9.57
2022-10-29T03:50:02.095Z,9.70
2022-10-29T03:52:29.957Z,9.10
2022-10-29T03:54:57.839Z,9.43
2022-10-29T03:57:25.667Z,10.03
2022-10-29T03:59:53.543Z,10.57
2022-10-29T04:02:22.931Z,10.50
2022-10-29T04:04:50.986Z,10.03
2022-10-29T04:07:18.888Z,10.87
2022-10-29T04:09:46.688Z,9.87
2022-10-29T04:12:14.551Z,10.07
2022-10-29T04:14:45.745Z,9.87
2022-10-29T04:17:14.111Z,9.37
2022-10-29T04:19:43.297Z,10.30
2022-10-29T04:28:42.063Z,10.60
2022-10-29T04:30:34.728Z,10.67
2022-10-29T04:33:02.555Z,10.60
2022-10-29T04:35:31.681Z,10.30
2022-10-29T04:37:59.519Z,10.37
2022-10-29T04:40:27.377Z,10.30
2022-10-29T04:42:55.581Z,9.73
2022-10-29T04:45:23.602Z,10.60
2022-10-29T04:48:00.019Z,10.57
2022-10-29T04:50:28.113Z,9.83
2022-10-29T04:53:00.693Z,10.03
2022-10-29T04:55:29.658Z,10.73
2022-10-29T04:57:58.010Z,10.10
2022-10-29T05:00:26.172Z,10.67
2022-10-29T05:02:54.495Z,11.10
2022-10-29T05:05:23.130Z,9.87
2022-10-29T05:07:56.844Z,11.47
2022-10-29T05:10:26.922Z,11.00
2022-10-29T05:12:59.202Z,10.97
2022-10-29T05:15:27.952Z,10.43
2022-10-29T05:17:56.381Z,11.30
2022-10-29T05:20:25.317Z,10.03
2022-10-29T05:23:00.140Z,11.67
2022-10-29T05:25:30.184Z,11.73
2022-10-29T05:28:02.958Z,12.60
2022-10-29T05:30:30.792Z,11.70
2022-10-29T05:32:59.000Z,11.70
2022-10-29T05:35:27.412Z,10.90
2022-10-29T05:37:56.523Z,11.23
2022-10-29T05:40:24.977Z,12.07
2022-10-29T05:42:54.416Z,10.73
2022-10-29T05:45:22.644Z,11.40
2022-10-29T05:47:56.178Z,12.10
2022-10-29T05:50:24.060Z,11.53
2022-10-29T05:52:56.890Z,11.00
2022-10-29T05:55:25.380Z,11.00
2022-10-29T05:57:57.980Z,11.47
2022-10-29T06:00:27.170Z,11.63
2022-10-29T06:02:55.465Z,11.10
2022-10-29T06:05:24.251Z,11.73
2022-10-29T06:07:55.694Z,11.83
2022-10-29T06:10:24.048Z,11.40
2022-10-29T06:12:52.327Z,10.90
2022-10-29T06:15:21.794Z,11.67
2022-10-29T06:17:49.682Z,11.00
2022-10-29T06:20:19.681Z,11.27
2022-10-29T06:22:47.542Z,10.90
2022-10-29T06:25:15.537Z,11.33
2022-10-29T06:27:43.351Z,12.03
2022-10-29T06:30:12.399Z,11.00
2022-10-29T06:32:41.576Z,11.77
2022-10-29T06:35:10.865Z,11.27
2022-10-29T06:37:38.940Z,11.23
2022-10-29T06:40:07.956Z,11.30
2022-10-29T06:42:35.808Z,12.00
2022-10-29T06:45:03.650Z,12.00
2022-10-29T06:47:31.505Z,11.33
2022-10-29T06:50:00.668Z,12.30
2022-10-29T06:52:28.466Z,11.83
2022-10-29T06:54:56.318Z,11.57
2022-10-29T06:57:24.772Z,12.10
2022-10-29T06:59:52.611Z,12.00
2022-10-29T07:02:21.582Z,11.40
2022-10-29T07:04:49.868Z,11.60
2022-10-29T07:07:19.134Z,11.50
2022-10-29T07:09:47.032Z,12.43
2022-10-29T07:12:14.866Z,11.60
2022-10-29T07:14:42.693Z,11.80
2022-10-29T07:17:10.518Z,12.40
2022-10-29T07:19:38.329Z,11.33
2022-10-29T07:22:06.167Z,11.50
2022-10-29T07:24:35.313Z,11.03
2022-10-29T07:27:03.111Z,10.90
2022-10-29T07:29:30.958Z,10.90
2022-10-29T07:31:58.833Z,10.87
2022-10-29T07:34:26.634Z,10.50
2022-10-29T07:36:54.441Z,10.63
2022-10-29T07:39:22.661Z,10.63
2022-10-29T07:41:54.088Z,10.33
2022-10-29T07:44:24.565Z,10.27
2022-10-29T07:46:52.389Z,10.03
2022-10-29T07:49:20.313Z,10.10
2022-10-29T07:51:49.288Z,9.23
2022-10-29T07:54:17.097Z,10.07
2022-10-29T07:56:47.606Z,9.87
2022-10-29T07:59:17.765Z,10.17
2022-10-29T08:01:45.756Z,9.63
2022-10-29T08:04:14.364Z,10.40
2022-10-29T08:06:42.418Z,9.97
2022-10-29T08:09:11.690Z,9.93
2022-10-29T08:11:39.941Z,9.10
2022-10-29T08:14:07.834Z,9.70
2022-10-29T08:16:37.026Z,8.77
2022-10-29T08:19:04.921Z,49.53
2022-10-29T08:21:32.738Z,8.50
2022-10-29T08:24:00.578Z,8.73
2022-10-29T08:26:28.382Z,8.63
2022-10-29T08:28:56.342Z,8.37
2022-10-29T08:31:24.152Z,8.37
2022-10-29T08:33:53.361Z,7.83
2022-10-29T08:36:21.217Z,7.93
2022-10-29T08:38:49.210Z,7.87
2022-10-29T08:41:34.304Z,7.43
2022-10-29T08:44:32.467Z,7.57
2022-10-29T08:47:09.413Z,7.67
2022-10-29T08:49:43.482Z,7.70
2022-10-29T08:52:19.756Z,7.87
2022-10-29T08:54:51.886Z,7.80
2022-10-29T08:57:24.459Z,7.37
2022-10-29T09:00:03.454Z,7.13
2022-10-29T09:02:31.340Z,7.10
2022-10-29T09:05:01.552Z,6.87
2022-10-29T09:07:50.865Z,6.70
2022-10-29T09:10:28.889Z,6.80
2022-10-29T09:13:35.808Z,7.30
2022-10-29T09:16:22.223Z,8.27
2022-10-29T09:19:11.394Z,9.10
2022-10-29T09:21:47.267Z,6.83
2022-10-29T09:24:20.522Z,6.30
2022-10-29T09:26:58.152Z,6.47
2022-10-29T09:29:48.209Z,6.10
2022-10-29T09:32:21.534Z,6.37
2022-10-29T09:34:52.390Z,6.33
2022-10-29T09:37:26.452Z,6.27
2022-10-29T09:39:56.697Z,6.63
2022-10-29T09:42:33.829Z,6.57
2022-10-29T09:45:03.962Z,5.93
2022-10-29T09:47:44.097Z,5.97
2022-10-29T09:50:23.736Z,5.67
2022-10-29T09:52:54.496Z,5.73
2022-10-29T09:55:26.384Z,5.57
2022-10-29T09:57:56.808Z,5.87
2022-10-29T10:00:26.663Z,5.97
2022-10-29T10:03:01.262Z,5.23
2022-10-29T10:05:31.475Z,5.00
2022-10-29T10:08:10.054Z,5.33
2022-10-29T10:10:53.395Z,5.27
2022-10-29T10:13:26.966Z,5.03
2022-10-29T10:15:57.782Z,5.27
2022-10-29T10:18:27.657Z,5.03
2022-10-29T10:21:05.371Z,5.30
2022-10-29T10:23:44.446Z,4.70
2022-10-29T10:26:30.229Z,5.40
2022-10-29T10:29:16.315Z,4.40
2022-10-29T10:31:45.766Z,5.23
2022-10-29T10:34:19.679Z,4.57
2022-10-29T10:36:50.985Z,5.20
2022-10-29T10:39:28.588Z,4.60
2022-10-29T10:41:58.150Z,4.87
2022-10-29T10:44:27.384Z,4.90
2022-10-29T10:46:58.104Z,4.77
2022-10-29T10:49:33.019Z,4.37
2022-10-29T10:52:03.977Z,5.03
2022-10-29T10:54:37.497Z,4.70
2022-10-29T10:57:19.025Z,4.43
2022-10-29T10:59:52.177Z,4.90
2022-10-29T11:02:30.330Z,4.73
2022-10-29T11:05:05.108Z,5.00
2022-10-29T11:07:38.449Z,5.00
2022-10-29T11:10:12.893Z,4.63
2022-10-29T11:12:43.945Z,4.70
2022-10-29T11:15:18.000Z,4.77
2022-10-29T11:17:54.302Z,5.00
2022-10-29T11:20:25.989Z,4.77
2022-10-29T11:23:03.568Z,4.77
2022-10-29T11:25:40.832Z,5.10
2022-10-29T11:28:19.878Z,4.33
2022-10-29T11:30:52.834Z,4.73
2022-10-29T11:33:27.202Z,4.77
2022-10-29T11:36:01.639Z,4.97
2022-10-29T11:38:34.125Z,4.57
2022-10-29T11:41:08.491Z,4.60
2022-10-29T11:43:36.375Z,4.50
2022-10-29T11:46:12.277Z,4.57
2022-10-29T11:48:56.353Z,4.80
2022-10-29T11:51:35.290Z,4.33
2022-10-29T11:54:10.177Z,4.57
2022-10-29T11:56:49.149Z,4.70
2022-10-29T11:59:30.677Z,4.63
2022-10-29T12:02:07.674Z,4.50
2022-10-29T12:04:41.892Z,4.40
2022-10-29T12:07:28.253Z,4.43
2022-10-29T12:10:16.107Z,4.60
2022-10-29T12:12:51.798Z,5.07
2022-10-29T12:15:25.888Z,4.10
2022-10-29T12:18:04.438Z,4.43
2022-10-29T12:20:41.081Z,3.90
2022-10-29T12:23:25.138Z,4.20
2022-10-29T12:26:03.910Z,4.57
2022-10-29T12:28:42.834Z,4.30
2022-10-29T12:31:24.233Z,4.70
2022-10-29T12:34:00.981Z,4.50
2022-10-29T12:36:37.800Z,4.70
2022-10-29T12:39:15.284Z,4.80
2022-10-29T12:41:47.277Z,4.60
2022-10-29T12:44:23.631Z,4.40
2022-10-29T12:47:00.130Z,4.27
2022-10-29T12:49:41.164Z,4.47
2022-10-29T12:52:12.629Z,3.97
2022-10-29T12:54:43.352Z,4.17
2022-10-29T12:57:29.082Z,4.00
2022-10-29T13:00:27.499Z,3.80
2022-10-29T13:02:56.693Z,3.53
2022-10-29T13:05:40.040Z,4.43
2022-10-29T13:08:21.961Z,3.70
2022-10-29T13:10:55.865Z,4.13
2022-10-29T13:13:58.543Z,4.00
2022-10-29T13:16:31.416Z,4.00
2022-10-29T13:19:19.094Z,4.00
2022-10-29T13:22:27.692Z,4.20
2022-10-29T13:25:30.949Z,4.53
2022-10-29T13:27:58.764Z,4.10
2022-10-29T13:30:28.960Z,4.40
2022-10-29T13:32:58.528Z,3.93
2022-10-29T13:35:41.099Z,3.97
2022-10-29T13:38:15.912Z,4.17
2022-10-29T13:41:15.672Z,4.27
2022-10-29T13:43:53.554Z,4.30
2022-10-29T13:46:32.317Z,4.70
2022-10-29T13:49:07.993Z,3.90
2022-10-29T13:51:43.738Z,4.20
2022-10-29T13:54:20.198Z,4.50
2022-10-29T13:56:52.319Z,3.73
2022-10-29T13:59:28.885Z,4.23
2022-10-29T14:02:22.437Z,4.47
2022-10-29T14:04:56.437Z,4.03
2022-10-29T14:07:31.165Z,3.87
2022-10-29T14:10:06.990Z,4.07
2022-10-29T14:12:38.197Z,4.33
2022-10-29T14:15:10.204Z,5.00
2022-10-29T14:17:39.721Z,4.20
2022-10-29T14:20:21.588Z,4.40
2022-10-29T14:22:49.389Z,4.27
2022-10-29T14:25:33.302Z,4.53
2022-10-29T14:28:25.763Z,4.63
2022-10-29T14:31:02.253Z,4.57
2022-10-29T14:33:32.076Z,4.10
2022-10-29T14:36:08.257Z,4.17
2022-10-29T14:38:41.635Z,4.43
2022-10-29T14:41:10.072Z,4.13
2022-10-29T14:43:38.973Z,4.90
2022-10-29T14:46:24.536Z,4.57
2022-10-29T14:49:10.339Z,5.07
2022-10-29T14:51:41.765Z,4.33
2022-10-29T14:54:16.647Z,5.20
2022-10-29T14:56:44.500Z,4.70
2022-10-29T14:59:19.334Z,4.83
2022-10-29T15:01:56.731Z,4.90
2022-10-29T15:04:30.757Z,5.10
2022-10-29T15:07:29.384Z,4.90
2022-10-29T15:10:16.968Z,4.93
2022-10-29T15:12:45.974Z,4.70
2022-10-29T15:15:26.919Z,4.90
2022-10-29T15:17:59.590Z,4.60
2022-10-29T15:20:34.053Z,5.03
2022-10-29T15:23:03.881Z,4.67
2022-10-29T15:25:34.609Z,5.03
2022-10-29T15:28:03.674Z,4.70
2022-10-29T15:30:35.551Z,4.63
2022-10-29T15:33:08.060Z,4.97
2022-10-29T15:35:36.968Z,4.50
2022-10-29T15:38:06.338Z,4.50
2022-10-29T15:41:15.443Z,4.73
2022-10-29T15:43:50.918Z,4.90
2022-10-29T15:46:23.039Z,5.03
2022-10-29T15:48:50.893Z,5.00
2022-10-29T15:51:19.658Z,4.80
2022-10-29T15:53:48.833Z,4.93
2022-10-29T15:56:16.754Z,4.83
2022-10-29T15:58:44.732Z,4.63
2022-10-29T16:01:15.864Z,5.43
2022-10-29T16:03:44.859Z,4.70
2022-10-29T16:06:13.759Z,4.70
2022-10-29T16:08:44.169Z,4.73
2022-10-29T16:11:15.067Z,5.00
2022-10-29T16:13:43.108Z,4.50
2022-10-29T16:16:15.827Z,5.60
2022-10-29T16:18:43.886Z,4.73
2022-10-29T16:21:15.172Z,5.27
2022-10-29T16:23:43.057Z,5.87
2022-10-29T16:26:16.126Z,5.30
2022-10-29T16:28:44.531Z,6.10
2022-10-29T16:31:20.310Z,5.73
2022-10-29T16:33:48.820Z,6.30
2022-10-29T16:36:16.705Z,5.43
2022-10-29T16:38:44.592Z,6.23
2022-10-29T16:41:15.334Z,4.07
2022-10-29T16:43:44.148Z,4.17
2022-10-29T16:46:12.633Z,6.00
2022-10-29T16:48:40.980Z,6.03
2022-10-29T16:51:09.412Z,5.70
2022-10-29T16:53:37.288Z,7.37
2022-10-29T16:56:05.795Z,9.43
2022-10-29T16:58:35.020Z,7.17
2022-10-29T17:01:03.867Z,6.33
2022-10-29T17:03:32.941Z,8.70
2022-10-29T17:06:05.590Z,7.70
2022-10-29T17:08:34.663Z,8.07
2022-10-29T17:11:04.072Z,8.10
2022-10-29T17:13:31.944Z,8.23
2022-10-29T17:16:01.090Z,7.10
2022-10-29T17:18:28.902Z,9.70
2022-10-29T17:20:58.220Z,8.30
2022-10-29T17:23:26.445Z,11.47
2022-10-29T17:25:55.261Z,15.40
2022-10-29T17:28:23.254Z,9.97
2022-10-29T17:30:51.297Z,11.00
2022-10-29T17:33:20.840Z,9.17
2022-10-29T17:35:48.869Z,14.30
2022-10-29T17:38:16.900Z,8.83
2022-10-29T17:40:46.104Z,7.87
2022-10-29T17:43:14.062Z,7.57
2022-10-29T17:45:43.578Z,7.87
2022-10-29T17:48:11.401Z,7.67
2022-10-29T17:50:40.550Z,7.57
2022-10-29T17:53:08.366Z,7.13
2022-10-29T17:55:36.215Z,6.80
2022-10-29T17:58:04.039Z,7.17
2022-10-29T18:00:31.849Z,6.60
2022-10-29T18:05:32.711Z,6.17
2022-10-29T18:08:01.935Z,6.20
2022-10-29T18:10:29.934Z,6.43
2022-10-29T18:12:57.725Z,5.80
2022-10-29T18:15:25.616Z,6.07
2022-10-29T18:20:26.225Z,5.90
2022-10-29T18:22:56.005Z,5.73
2022-10-29T18:25:25.544Z,5.90
2022-10-29T18:27:55.530Z,6.53
2022-10-29T18:30:23.722Z,5.97
2022-10-29T18:32:51.658Z,6.20
2022-10-29T18:35:19.507Z,6.40
2022-10-29T18:37:47.389Z,6.10
2022-10-29T18:40:15.378Z,7.00
2022-10-29T18:42:44.513Z,6.10
2022-10-29T18:45:12.559Z,6.20
2022-10-29T18:47:40.364Z,6.13
2022-10-29T18:50:08.979Z,6.13
2022-10-29T18:52:36.779Z,5.90
2022-10-29T18:55:05.004Z,6.03
2022-10-29T18:57:33.020Z,6.07
2022-10-29T19:00:02.187Z,5.90
2022-10-29T19:02:30.041Z,6.33
2022-10-29T19:04:57.928Z,5.80
2022-10-29T19:07:25.752Z,5.90
2022-10-29T19:09:53.612Z,6.00
2022-10-29T19:12:21.414Z,6.20
2022-10-29T19:14:49.221Z,5.90
2022-10-29T19:17:18.363Z,5.57
2022-10-29T19:19:46.197Z,5.57
2022-10-29T19:22:14.063Z,5.60
2022-10-29T19:24:41.891Z,6.37
2022-10-29T19:27:09.711Z,5.60
2022-10-29T19:29:37.554Z,6.00
2022-10-29T19:32:05.697Z,6.07
2022-10-29T19:34:34.916Z,5.90
2022-10-29T19:37:02.745Z,6.13
2022-10-29T19:39:30.561Z,6.37
2022-10-29T19:44:43.953Z,6.23
2022-10-29T19:47:11.766Z,6.53
2022-10-29T19:49:40.918Z,6.73
2022-10-29T19:52:08.865Z,5.83
2022-10-29T19:54:36.696Z,5.87
2022-10-29T19:57:04.711Z,6.43
2022-10-29T19:59:32.537Z,6.17
2022-10-29T20:02:00.508Z,5.53
2022-10-29T20:04:28.628Z,6.30
2022-10-29T20:06:57.753Z,5.87
2022-10-29T20:09:25.561Z,5.73
2022-10-29T20:11:53.387Z,6.30
2022-10-29T20:14:23.090Z,5.93
2022-10-29T20:16:54.401Z,5.97
2022-10-29T20:19:22.177Z,5.90
2022-10-29T20:21:49.992Z,6.20
2022-10-29T20:24:20.425Z,5.97
2022-10-29T20:26:48.902Z,5.93
2022-10-29T20:29:16.745Z,6.57
2022-10-29T20:31:44.535Z,6.80
2022-10-29T20:34:12.454Z,5.87
2022-10-29T20:36:40.476Z,6.50
2022-10-29T20:39:08.470Z,6.33
2022-10-29T20:41:37.633Z,6.70
2022-10-29T20:44:05.662Z,5.67
2022-10-29T20:46:33.486Z,7.20
2022-10-29T20:49:01.433Z,6.53
2022-10-29T20:51:29.384Z,7.03
2022-10-29T20:53:57.317Z,6.40
2022-10-29T20:56:26.953Z,7.70
2022-10-29T20:58:56.275Z,6.50
2022-10-29T21:01:24.922Z,7.47
2022-10-29T21:03:53.062Z,8.23
2022-10-29T21:06:20.914Z,8.00
2022-10-29T21:08:50.840Z,9.03
2022-10-29T21:11:20.179Z,9.67
2022-10-29T21:13:48.044Z,9.10
2022-10-29T21:16:19.718Z,8.30
2022-10-29T21:18:49.541Z,9.30
2022-10-29T21:21:17.641Z,9.63
2022-10-29T21:23:45.863Z,9.07
2022-10-29T21:26:15.990Z,9.67
2022-10-29T21:28:43.965Z,9.23
2022-10-29T21:31:11.807Z,8.33
2022-10-29T21:33:41.234Z,9.17
2022-10-29T21:36:10.826Z,9.97
2022-10-29T21:38:38.619Z,8.77
2022-10-29T21:41:06.721Z,9.23
2022-10-29T21:43:34.862Z,8.97
2022-10-29T21:46:02.661Z,9.13
2022-10-29T21:48:31.003Z,9.07
2022-10-29T21:51:07.337Z,8.47
2022-10-29T21:53:35.691Z,7.97
2022-10-29T21:56:05.744Z,8.87
2022-10-29T21:58:34.189Z,8.57
2022-10-29T22:01:07.228Z,9.37
2022-10-29T22:03:36.370Z,8.30
2022-10-29T22:06:07.519Z,7.83
2022-10-29T22:08:35.766Z,7.87
2022-10-29T22:11:03.938Z,8.33
2022-10-29T22:13:33.244Z,9.00
2022-10-29T22:16:01.358Z,8.60
2022-10-29T22:18:29.922Z,8.23
2022-10-29T22:21:11.220Z,8.47
2022-10-29T22:23:43.039Z,10.93
2022-10-29T22:26:11.146Z,12.00
2022-10-29T22:28:39.293Z,10.67
2022-10-29T22:31:07.287Z,12.33
2022-10-29T22:33:35.821Z,13.67
2022-10-29T22:36:11.689Z,9.43
2022-10-29T22:38:40.008Z,9.67
2022-10-29T22:41:09.082Z,8.10
2022-10-29T22:43:37.262Z,7.93
2022-10-29T22:46:06.397Z,7.07
2022-10-29T22:48:34.336Z,7.87
2022-10-29T22:51:03.653Z,7.60
2022-10-29T22:53:33.284Z,7.17
2022-10-29T22:56:02.199Z,7.20
2022-10-29T22:58:30.199Z,6.90
2022-10-29T23:01:06.456Z,7.53
2022-10-29T23:03:34.919Z,7.80
2022-10-29T23:06:04.285Z,7.53
2022-10-29T23:08:35.280Z,6.87
2022-10-29T23:11:06.524Z,7.73
2022-10-29T23:13:34.469Z,7.17
2022-10-29T23:16:02.365Z,6.90
2022-10-29T23:18:30.184Z,7.33
2022-10-29T23:21:01.866Z,7.10
2022-10-29T23:23:30.521Z,7.20
2022-10-29T23:26:02.222Z,7.43
2022-10-29T23:28:30.837Z,7.57
2022-10-29T23:31:00.437Z,7.30
2022-10-29T23:33:29.128Z,7.47
2022-10-29T23:35:57.232Z,7.13
2022-10-29T23:38:25.045Z,7.50
2022-10-29T23:40:52.862Z,7.80
2022-10-29T23:43:22.055Z,7.93
2022-10-29T23:45:49.926Z,7.97
2022-10-29T23:48:17.849Z,8.70
2022-10-29T23:50:46.546Z,7.67
2022-10-29T23:53:15.090Z,8.13
2022-10-29T23:55:43.174Z,6.87
2022-10-29T23:58:11.694Z,7.77
